METAR Data
IDs: Format: Raw Decoded Include TAF

Data at: 1135 UTC 23 Jun 2021

METAR for:EBCI (Charleroi Arpt, WH, BX)
Text:EBCI 231120Z 04009KT 8000 OVC007 12/10 Q1021 NOSIG
Temperature: 12.0°C ( 54°F)
Dewpoint: 10.0°C ( 50°F) [RH = 88%]
Pressure (altimeter):30.15 inches Hg (1021.0 mb)
Winds:from the NE (40 degrees) at 10 MPH (9 knots; 4.6 m/s)
Visibility: 5 sm ( 8 km)
Ceiling:700 feet AGL
Clouds: overcast cloud deck at 700 feet AGL

TAF for:EBCI (Charleroi Arpt, WH, BX) issued at 1103 UTC 23 Jun 2021
Text:TAF EBCI 231103Z 2312/2418 03008KT 9999 SCT006 BKN008
Forecast period:1200 to 1300 UTC 23 June 2021
Forecast type:FROM: standard forecast or significant change
Winds:from the NNE (30 degrees) at 9 MPH (8 knots; 4.1 m/s)
Visibility:6 or more sm (10+ km)
Ceiling:800 feet AGL
Clouds: scattered clouds at 600 feet AGL, broken clouds at 800 feet AGL
Text:BECMG 2313/2315 SCT015 BKN020
Forecast period:1300 UTC 23 June 2021 to 1800 UTC 24 June 2021
Forecast type:BECOMING: Conditions expected to become as follows by 1500 UTC 23 June 2021
Winds:from the NNE (30 degrees) at 9 MPH (8 knots; 4.1 m/s)
Visibility:6 or more sm (10+ km)
Ceiling:2000 feet AGL
Clouds: scattered clouds at 1500 feet AGL, broken clouds at 2000 feet AGL
Text:PROB30
Forecast period:0200 to 0600 UTC 24 June 2021
Forecast type:TEMPORARY: The following changes expected for less than half the time period
Ceiling:500 feet AGL
Clouds: broken clouds at 500 feet AGL